Time;durP1;ratioP1;P1;durP2;ratioP2;P2;SDS_P1;SDS_P2;PMS_P1;PMS_P2;Temp;Humidity;BMP_temperature;BMP_pressure;BME280_temperature;BME280_humidity;BME280_pressure;Samples;Min_cycle;Max_cycle;Signal;HPM_P1;HPM_P2
2022/05/05 00:02:22;;;;;;;19.60;12.43;;;;;;;;;;5020727;28;94808;-77
2022/05/05 00:04:49;;;;;;;11.40;10.20;;;;;;;;;;5015167;28;92898;-77
2022/05/05 00:07:15;;;;;;;19.33;11.90;;;;;;;;;;5015029;28;94001;-76
2022/05/05 00:09:42;;;;;;;18.40;10.95;;;;;;;;;;5013511;28;93931;-76
2022/05/05 00:14:53;;;;;;;18.00;11.05;;;;;;;;;;5011980;28;94901;-76
2022/05/05 00:17:19;;;;;;;17.65;11.65;;;;;;;;;;5014984;28;94197;-76
2022/05/05 00:19:46;;;;;;;18.48;11.65;;;;;;;;;;5018386;28;93831;-76
2022/05/05 00:22:12;;;;;;;18.52;11.48;;;;;;;;;;5014116;28;94208;-76
2022/05/05 00:24:39;;;;;;;16.92;11.32;;;;;;;;;;5017090;28;92849;-76
2022/05/05 00:27:06;;;;;;;18.23;11.57;;;;;;;;;;5015009;28;93954;-76
2022/05/05 00:29:33;;;;;;;17.75;11.70;;;;;;;;;;5015084;28;93194;-76
2022/05/05 00:31:59;;;;;;;20.85;11.75;;;;;;;;;;5035321;28;92288;-77
2022/05/05 00:34:26;;;;;;;19.75;11.43;;;;;;;;;;5033530;28;93381;-77
2022/05/05 00:36:52;;;;;;;18.77;11.05;;;;;;;;;;5034699;28;94709;-77
2022/05/05 00:39:18;;;;;;;21.08;11.23;;;;;;;;;;5022065;28;94910;-77
2022/05/05 00:41:46;;;;;;;15.57;10.75;;;;;;;;;;5013738;28;94231;-76
2022/05/05 00:44:13;;;;;;;23.05;13.43;;;;;;;;;;5014128;28;93524;-76
2022/05/05 00:46:39;;;;;;;22.23;12.48;;;;;;;;;;5031804;27;93981;-76
2022/05/05 00:49:06;;;;;;;14.90;11.70;;;;;;;;;;5022156;28;94064;-77
2022/05/05 00:51:32;;;;;;;15.07;11.38;;;;;;;;;;5014399;28;92483;-76
2022/05/05 00:53:59;;;;;;;22.65;11.52;;;;;;;;;;5014497;28;94035;-76
2022/05/05 00:56:25;;;;;;;14.45;11.80;;;;;;;;;;5013426;28;93502;-76
2022/05/05 00:58:53;;;;;;;20.40;11.63;;;;;;;;;;5030495;28;92444;-76
2022/05/05 01:01:20;;;;;;;20.48;12.68;;;;;;;;;;5035638;28;94002;-76
2022/05/05 01:03:47;;;;;;;25.90;11.85;;;;;;;;;;5011508;28;94904;-76
2022/05/05 01:06:14;;;;;;;20.27;11.65;;;;;;;;;;5014175;28;96401;-76
2022/05/05 01:08:41;;;;;;;19.02;11.60;;;;;;;;;;5013555;28;94444;-76
2022/05/05 01:11:08;;;;;;;22.15;12.48;;;;;;;;;;5013430;28;92618;-76
2022/05/05 01:13:37;;;;;;;24.58;12.13;;;;;;;;;;5013575;28;93184;-76
2022/05/05 01:16:04;;;;;;;18.63;11.88;;;;;;;;;;5021683;28;94275;-76
2022/05/05 01:18:30;;;;;;;20.83;12.10;;;;;;;;;;5026523;28;92469;-76
2022/05/05 01:20:58;;;;;;;21.33;13.13;;;;;;;;;;5014232;28;94055;-76
2022/05/05 01:23:24;;;;;;;23.92;13.95;;;;;;;;;;5016213;28;94301;-76
2022/05/05 01:28:39;;;;;;;17.48;12.68;;;;;;;;;;5011887;28;96592;-76
2022/05/05 01:31:07;;;;;;;22.88;12.48;;;;;;;;;;5013252;28;92413;-76
2022/05/05 01:33:34;;;;;;;21.30;13.00;;;;;;;;;;5013506;28;94319;-76
2022/05/05 01:36:01;;;;;;;17.13;11.73;;;;;;;;;;5013020;28;94232;-75
2022/05/05 01:38:39;;;;;;;23.27;11.98;;;;;;;;;;5014548;28;92538;-76
2022/05/05 01:41:12;;;;;;;19.77;12.00;;;;;;;;;;5014269;28;93976;-76
2022/05/05 01:43:40;;;;;;;21.88;12.77;;;;;;;;;;5013545;28;94243;-76
2022/05/05 01:46:06;;;;;;;18.95;12.10;;;;;;;;;;5016077;28;93626;-76
2022/05/05 01:48:33;;;;;;;15.05;11.90;;;;;;;;;;5020701;28;94337;-76
2022/05/05 01:51:00;;;;;;;18.95;12.60;;;;;;;;;;5033667;28;92584;-76
2022/05/05 01:53:26;;;;;;;16.55;11.65;;;;;;;;;;5030991;28;94856;-76
2022/05/05 01:55:52;;;;;;;18.02;12.45;;;;;;;;;;5032170;28;94096;-76
2022/05/05 01:58:19;;;;;;;17.60;12.30;;;;;;;;;;5032920;28;92410;-76
2022/05/05 02:00:45;;;;;;;19.55;11.98;;;;;;;;;;5013047;28;95409;-76
2022/05/05 02:03:15;;;;;;;20.40;12.05;;;;;;;;;;5027899;28;93397;-76
2022/05/05 02:05:42;;;;;;;25.17;13.05;;;;;;;;;;5013448;28;92440;-75
2022/05/05 02:08:09;;;;;;;18.40;13.02;;;;;;;;;;5014824;28;93452;-76
2022/05/05 02:10:36;;;;;;;18.75;12.90;;;;;;;;;;5015770;28;92720;-76
2022/05/05 02:13:03;;;;;;;15.88;11.82;;;;;;;;;;5032380;27;92599;-76
2022/05/05 02:15:29;;;;;;;18.65;11.90;;;;;;;;;;5032223;28;93766;-76
2022/05/05 02:17:56;;;;;;;18.98;12.90;;;;;;;;;;5028031;28;95158;-76
2022/05/05 02:20:22;;;;;;;26.30;13.10;;;;;;;;;;5012246;28;96263;-76
2022/05/05 02:22:49;;;;;;;15.23;12.32;;;;;;;;;;5012802;28;94101;-76
2022/05/05 02:25:15;;;;;;;18.60;12.27;;;;;;;;;;5013892;28;92410;-76
2022/05/05 02:27:51;;;;;;;15.32;11.98;;;;;;;;;;5031323;28;92951;-75
2022/05/05 02:30:19;;;;;;;19.77;12.98;;;;;;;;;;5036185;28;93178;-76
2022/05/05 02:32:45;;;;;;;24.30;13.00;;;;;;;;;;5013798;28;92980;-76
2022/05/05 02:35:12;;;;;;;18.20;12.52;;;;;;;;;;5011968;28;93108;-76
2022/05/05 02:40:23;;;;;;;21.10;14.25;;;;;;;;;;5012891;28;94155;-76
2022/05/05 02:42:49;;;;;;;16.38;12.18;;;;;;;;;;5011585;28;96609;-77
2022/05/05 02:45:16;;;;;;;21.48;12.15;;;;;;;;;;5033146;28;92413;-77
2022/05/05 02:47:42;;;;;;;18.00;12.43;;;;;;;;;;5028573;28;94332;-77
2022/05/05 02:50:09;;;;;;;17.17;12.38;;;;;;;;;;5015232;28;94315;-76
2022/05/05 02:52:35;;;;;;;17.40;12.65;;;;;;;;;;5012359;28;93545;-76
2022/05/05 02:55:01;;;;;;;18.90;11.63;;;;;;;;;;5018278;28;92533;-76
2022/05/05 02:57:28;;;;;;;18.65;12.32;;;;;;;;;;5031853;28;93033;-76
2022/05/05 02:59:55;;;;;;;19.50;12.25;;;;;;;;;;5021848;28;91861;-76
2022/05/05 03:02:23;;;;;;;18.67;12.27;;;;;;;;;;5011207;28;94320;-76
2022/05/05 03:04:50;;;;;;;21.13;12.80;;;;;;;;;;5012289;28;92639;-76
2022/05/05 03:07:16;;;;;;;20.85;12.80;;;;;;;;;;5031159;28;95014;-76
2022/05/05 03:09:43;;;;;;;16.60;12.95;;;;;;;;;;5031942;27;94591;-76
2022/05/05 03:12:10;;;;;;;21.27;12.93;;;;;;;;;;5039202;28;92493;-76
2022/05/05 03:14:36;;;;;;;19.63;12.60;;;;;;;;;;5035542;28;93834;-76
2022/05/05 03:17:03;;;;;;;23.83;14.00;;;;;;;;;;5035203;27;92457;-76
2022/05/05 03:19:30;;;;;;;22.27;14.65;;;;;;;;;;5016392;28;93955;-76
2022/05/05 03:21:57;;;;;;;16.60;12.05;;;;;;;;;;5015834;28;94253;-76
2022/05/05 03:24:23;;;;;;;19.00;13.70;;;;;;;;;;5015420;28;91789;-76
2022/05/05 03:26:50;;;;;;;18.00;12.73;;;;;;;;;;5015146;28;93172;-76
2022/05/05 03:29:16;;;;;;;18.67;12.52;;;;;;;;;;5015880;28;94309;-76
2022/05/05 03:31:42;;;;;;;22.35;14.20;;;;;;;;;;5013079;28;96017;-76
2022/05/05 03:34:09;;;;;;;16.92;13.18;;;;;;;;;;5017418;27;94297;-76
2022/05/05 03:36:36;;;;;;;25.00;13.80;;;;;;;;;;5015126;28;93082;-76
2022/05/05 03:39:02;;;;;;;20.35;13.57;;;;;;;;;;5014799;28;93984;-76
2022/05/05 03:41:28;;;;;;;20.80;12.70;;;;;;;;;;5015466;28;93983;-76
2022/05/05 03:43:55;;;;;;;19.20;11.75;;;;;;;;;;5035999;28;92429;-76
2022/05/05 03:46:22;;;;;;;18.05;12.75;;;;;;;;;;5026268;28;93941;-76
2022/05/05 03:48:48;;;;;;;17.90;12.30;;;;;;;;;;5015988;28;93471;-76
2022/05/05 03:51:14;;;;;;;23.80;13.25;;;;;;;;;;5032775;28;92567;-76
2022/05/05 03:53:41;;;;;;;14.98;13.32;;;;;;;;;;5028117;28;93293;-76
2022/05/05 03:56:07;;;;;;;16.73;12.43;;;;;;;;;;5017043;28;96539;-76
2022/05/05 03:58:33;;;;;;;18.08;12.38;;;;;;;;;;5017668;28;96334;-76
2022/05/05 04:01:00;;;;;;;15.90;11.85;;;;;;;;;;5035285;28;93535;-76
2022/05/05 04:03:32;;;;;;;18.25;11.55;;;;;;;;;;5035254;28;92442;-76
2022/05/05 04:06:00;;;;;;;20.63;11.65;;;;;;;;;;5031662;28;93992;-76
2022/05/05 04:08:27;;;;;;;16.27;12.52;;;;;;;;;;5035110;27;94130;-76
2022/05/05 04:10:53;;;;;;;17.48;11.75;;;;;;;;;;5035292;28;92526;-76
2022/05/05 04:13:20;;;;;;;14.60;11.57;;;;;;;;;;5034965;28;93962;-76
2022/05/05 04:15:46;;;;;;;12.30;11.00;;;;;;;;;;5015392;28;94301;-76
2022/05/05 04:18:13;;;;;;;15.20;11.05;;;;;;;;;;5018235;28;92515;-76
2022/05/05 04:20:40;;;;;;;21.95;11.63;;;;;;;;;;5011382;28;96487;-76
2022/05/05 04:23:06;;;;;;;19.65;12.02;;;;;;;;;;5014150;28;92498;-76
2022/05/05 04:25:52;;;;;;;16.60;12.32;;;;;;;;;;5015027;28;92829;-76
2022/05/05 04:28:19;;;;;;;23.65;13.25;;;;;;;;;;5014226;28;94210;-76
2022/05/05 04:30:45;;;;;;;35.40;12.77;;;;;;;;;;5014696;28;92553;-76
2022/05/05 04:33:12;;;;;;;20.10;12.40;;;;;;;;;;5014105;28;93065;-76
2022/05/05 04:35:39;;;;;;;23.45;13.13;;;;;;;;;;5013780;28;96253;-76
2022/05/05 04:38:05;;;;;;;27.55;13.70;;;;;;;;;;5030968;28;91712;-76
2022/05/05 04:40:32;;;;;;;29.95;13.35;;;;;;;;;;5037639;28;93284;-76
2022/05/05 04:42:58;;;;;;;26.88;14.63;;;;;;;;;;5028228;28;93147;-76
2022/05/05 04:45:25;;;;;;;16.55;13.35;;;;;;;;;;5033192;28;94838;-76
2022/05/05 04:47:52;;;;;;;30.05;13.35;;;;;;;;;;5033594;28;93759;-76
2022/05/05 04:50:18;;;;;;;20.70;14.10;;;;;;;;;;5028671;27;92409;-76
2022/05/05 04:52:45;;;;;;;26.77;14.15;;;;;;;;;;5014357;28;93362;-76
2022/05/05 04:55:11;;;;;;;24.50;13.77;;;;;;;;;;5013341;28;93415;-76
2022/05/05 04:57:38;;;;;;;17.85;13.98;;;;;;;;;;5014384;28;92487;-76
2022/05/05 05:00:05;;;;;;;29.42;14.57;;;;;;;;;;5017725;28;92970;-76
2022/05/05 05:02:32;;;;;;;24.45;15.10;;;;;;;;;;5013973;28;92286;-76
2022/05/05 05:04:58;;;;;;;21.80;14.52;;;;;;;;;;5014053;28;93208;-76
2022/05/05 05:07:25;;;;;;;21.92;13.65;;;;;;;;;;5018198;28;94317;-76
2022/05/05 05:09:51;;;;;;;24.75;13.40;;;;;;;;;;5027799;28;94984;-75
2022/05/05 05:12:17;;;;;;;22.23;14.13;;;;;;;;;;5014399;28;96727;-76
2022/05/05 05:14:44;;;;;;;21.15;14.35;;;;;;;;;;5013841;28;94292;-76
2022/05/05 05:17:10;;;;;;;29.52;13.68;;;;;;;;;;5013459;28;92569;-76
2022/05/05 05:19:36;;;;;;;26.15;13.70;;;;;;;;;;5013649;28;92734;-76
2022/05/05 05:22:05;;;;;;;23.88;14.30;;;;;;;;;;5016628;28;94193;-76
2022/05/05 05:24:32;;;;;;;22.75;13.95;;;;;;;;;;5012972;28;94189;-75
2022/05/05 05:26:58;;;;;;;23.60;13.10;;;;;;;;;;5019701;28;92929;-76
2022/05/05 05:29:25;;;;;;;23.65;12.95;;;;;;;;;;5034759;28;93061;-76
2022/05/05 05:31:51;;;;;;;24.98;12.15;;;;;;;;;;5033303;28;94386;-76
2022/05/05 05:34:18;;;;;;;17.85;11.55;;;;;;;;;;5022119;28;96494;-76
2022/05/05 05:36:44;;;;;;;28.83;12.93;;;;;;;;;;5013036;28;92480;-76
2022/05/05 05:39:10;;;;;;;26.95;12.77;;;;;;;;;;5013197;28;92969;-76
2022/05/05 05:41:36;;;;;;;26.35;13.68;;;;;;;;;;5013072;28;93553;-76
2022/05/05 05:44:03;;;;;;;17.17;12.40;;;;;;;;;;5018944;28;92811;-76
2022/05/05 05:46:29;;;;;;;21.27;13.00;;;;;;;;;;5016532;28;94246;-76
2022/05/05 05:48:56;;;;;;;19.83;11.77;;;;;;;;;;5013650;28;94021;-75
2022/05/05 05:51:29;;;;;;;19.95;13.05;;;;;;;;;;5017123;28;93158;-76
2022/05/05 05:53:55;;;;;;;25.08;13.10;;;;;;;;;;5024878;27;93534;-76
2022/05/05 05:56:22;;;;;;;20.33;12.50;;;;;;;;;;5025264;27;92645;-76
2022/05/05 05:58:48;;;;;;;21.45;12.10;;;;;;;;;;5030210;27;95918;-76
2022/05/05 06:01:14;;;;;;;22.92;12.73;;;;;;;;;;5022091;27;94394;-76
2022/05/05 06:03:56;;;;;;;25.52;12.45;;;;;;;;;;5016931;28;94068;-76
2022/05/05 06:06:23;;;;;;;26.97;12.37;;;;;;;;;;5045322;27;93258;-76
2022/05/05 06:08:50;;;;;;;17.83;12.05;;;;;;;;;;5033012;27;94396;-76
2022/05/05 06:11:18;;;;;;;24.08;12.05;;;;;;;;;;5013670;28;93973;-76
2022/05/05 06:13:44;;;;;;;20.73;12.48;;;;;;;;;;5020012;28;93384;-76
2022/05/05 06:16:11;;;;;;;19.20;12.30;;;;;;;;;;5032409;27;93100;-76
2022/05/05 06:18:38;;;;;;;21.63;11.80;;;;;;;;;;5044175;27;93328;-76
2022/05/05 06:21:04;;;;;;;24.05;12.40;;;;;;;;;;5015229;27;93798;-75
2022/05/05 06:23:31;;;;;;;15.63;9.38;;;;;;;;;;5009384;28;96006;-74
2022/05/05 06:25:57;;;;;;;16.95;12.05;;;;;;;;;;5013977;28;96355;-75
2022/05/05 06:28:24;;;;;;;18.40;11.75;;;;;;;;;;5011215;28;94038;-78
2022/05/05 06:30:50;;;;;;;21.80;13.93;;;;;;;;;;5010253;28;94790;-76
2022/05/05 06:33:16;;;;;;;16.73;12.63;;;;;;;;;;5010907;28;94486;-75
2022/05/05 06:35:43;;;;;;;18.45;12.73;;;;;;;;;;5015594;27;94374;-77
2022/05/05 06:38:09;;;;;;;27.05;13.18;;;;;;;;;;5009990;28;94101;-76
2022/05/05 06:40:36;;;;;;;20.52;13.07;;;;;;;;;;5012408;28;93633;-77
2022/05/05 06:43:02;;;;;;;20.38;11.75;;;;;;;;;;5010982;28;94411;-77
2022/05/05 06:45:28;;;;;;;21.15;12.48;;;;;;;;;;5015765;27;93066;-78
2022/05/05 06:47:58;;;;;;;26.13;13.82;;;;;;;;;;5013935;28;96867;-76
2022/05/05 06:50:25;;;;;;;26.83;12.15;;;;;;;;;;5014440;28;92520;-77
2022/05/05 06:52:51;;;;;;;23.27;12.52;;;;;;;;;;5011020;28;94230;-76
2022/05/05 06:55:18;;;;;;;20.70;12.63;;;;;;;;;;5008111;27;92972;-76
2022/05/05 06:57:46;;;;;;;22.52;11.88;;;;;;;;;;5014966;28;93943;-77
2022/05/05 07:00:13;;;;;;;19.58;11.77;;;;;;;;;;5012151;28;94329;-77
2022/05/05 07:02:39;;;;;;;22.80;12.65;;;;;;;;;;5009066;28;93799;-77
2022/05/05 07:05:24;;;;;;;28.45;12.07;;;;;;;;;;5014346;28;94105;-77
2022/05/05 07:07:51;;;;;;;24.13;13.52;;;;;;;;;;5018002;28;93622;-77
2022/05/05 07:13:04;;;;;;;21.35;14.73;;;;;;;;;;5013367;28;96425;-78
2022/05/05 07:15:30;;;;;;;21.85;13.32;;;;;;;;;;5020084;28;92997;-78
2022/05/05 07:17:57;;;;;;;24.55;13.98;;;;;;;;;;5032340;28;93011;-80
2022/05/05 07:20:23;;;;;;;25.45;15.00;;;;;;;;;;5013628;28;93166;-77
2022/05/05 07:22:51;;;;;;;21.40;12.60;;;;;;;;;;5011222;28;93927;-76
2022/05/05 07:25:19;;;;;;;20.02;12.00;;;;;;;;;;5009481;28;95106;-77
2022/05/05 07:27:45;;;;;;;22.88;12.25;;;;;;;;;;5014341;28;94504;-78
2022/05/05 07:30:12;;;;;;;16.17;11.93;;;;;;;;;;5011014;28;93641;-78
2022/05/05 07:32:39;;;;;;;20.90;12.50;;;;;;;;;;5012619;28;94174;-79
2022/05/05 07:35:05;;;;;;;19.48;12.57;;;;;;;;;;5016074;27;93106;-78
2022/05/05 07:37:32;;;;;;;19.40;12.68;;;;;;;;;;5013468;28;95498;-78
2022/05/05 07:39:58;;;;;;;28.70;13.38;;;;;;;;;;5013237;28;94526;-78
2022/05/05 07:42:25;;;;;;;24.38;12.45;;;;;;;;;;5011855;28;92501;-78
2022/05/05 07:44:51;;;;;;;16.88;12.55;;;;;;;;;;5011495;28;94239;-78
2022/05/05 07:47:18;;;;;;;19.60;12.15;;;;;;;;;;5013848;28;94831;-78
2022/05/05 07:49:44;;;;;;;29.40;12.82;;;;;;;;;;5023493;27;92504;-77
2022/05/05 07:52:11;;;;;;;21.55;13.00;;;;;;;;;;5026870;27;93907;-78
2022/05/05 07:54:44;;;;;;;22.23;12.98;;;;;;;;;;5017442;27;93452;-78
2022/05/05 07:57:17;;;;;;;23.05;12.85;;;;;;;;;;5033601;27;93266;-79
2022/05/05 07:59:45;;;;;;;24.40;14.13;;;;;;;;;;5025123;27;94149;-78
2022/05/05 08:02:18;;;;;;;28.77;12.80;;;;;;;;;;5024769;28;94911;-78
2022/05/05 08:04:45;;;;;;;20.70;11.80;;;;;;;;;;5028696;28;96389;-80
2022/05/05 08:07:12;;;;;;;21.23;12.30;;;;;;;;;;5054170;27;94349;-78
2022/05/05 08:09:38;;;;;;;28.08;11.77;;;;;;;;;;5020446;27;92747;-78
2022/05/05 08:12:25;;;;;;;18.00;10.95;;;;;;;;;;5020155;28;92997;-77
2022/05/05 08:14:51;;;;;;;14.73;10.60;;;;;;;;;;5027001;27;94693;-78
2022/05/05 08:17:17;;;;;;;19.92;9.60;;;;;;;;;;5029510;28;92481;-79
2022/05/05 08:19:44;;;;;;;21.95;9.77;;;;;;;;;;5015278;28;92341;-79
2022/05/05 08:22:10;;;;;;;17.45;9.50;;;;;;;;;;5022135;28;93592;-79
2022/05/05 08:30:07;;;;;;;11.65;8.60;;;;;;;;;;5015942;28;92530;-76
2022/05/05 08:32:33;;;;;;;18.02;9.85;;;;;;;;;;5015454;28;93135;-76
2022/05/05 08:35:00;;;;;;;17.17;9.75;;;;;;;;;;5014637;28;94145;-76
2022/05/05 08:37:26;;;;;;;13.68;9.00;;;;;;;;;;5017418;28;92561;-76
2022/05/05 08:39:52;;;;;;;24.35;10.15;;;;;;;;;;5016840;28;93368;-79
2022/05/05 08:42:20;;;;;;;20.90;11.15;;;;;;;;;;5014326;28;93797;-78
2022/05/05 08:44:47;;;;;;;18.77;11.13;;;;;;;;;;5021882;28;93581;-79
2022/05/05 08:47:14;;;;;;;18.95;10.93;;;;;;;;;;5019948;28;93346;-80
2022/05/05 08:49:42;;;;;;;19.98;12.52;;;;;;;;;;5014318;28;92415;-81
2022/05/05 08:52:09;;;;;;;22.38;14.88;;;;;;;;;;5013114;28;94998;-80
2022/05/05 08:54:38;;;;;;;30.48;15.48;;;;;;;;;;5019899;27;94251;-80
2022/05/05 08:57:04;;;;;;;22.33;15.18;;;;;;;;;;5046825;27;92762;-80
2022/05/05 08:59:31;;;;;;;24.13;15.05;;;;;;;;;;5037435;28;93981;-80
2022/05/05 09:01:57;;;;;;;26.95;16.60;;;;;;;;;;5031170;27;92616;-80
2022/05/05 09:04:24;;;;;;;23.85;15.15;;;;;;;;;;5031230;28;93889;-77
2022/05/05 09:06:52;;;;;;;21.85;16.75;;;;;;;;;;5016741;28;93952;-80
2022/05/05 09:09:31;;;;;;;29.45;16.52;;;;;;;;;;5013178;28;93462;-80
2022/05/05 09:12:07;;;;;;;25.25;16.92;;;;;;;;;;5014796;28;92692;-79
2022/05/05 09:14:39;;;;;;;26.90;16.55;;;;;;;;;;5016008;28;94876;-79
2022/05/05 09:17:06;;;;;;;24.83;18.38;;;;;;;;;;5006674;28;95540;-80
2022/05/05 09:19:36;;;;;;;23.13;17.45;;;;;;;;;;5016585;28;95757;-80
2022/05/05 09:22:06;;;;;;;29.17;19.70;;;;;;;;;;5013454;28;94508;-80
2022/05/05 09:24:35;;;;;;;28.80;19.98;;;;;;;;;;5011182;28;94631;-80
2022/05/05 09:27:15;;;;;;;24.42;17.92;;;;;;;;;;5016391;28;94704;-80
2022/05/05 09:29:41;;;;;;;29.60;21.58;;;;;;;;;;5010841;28;94413;-79
2022/05/05 09:32:12;;;;;;;25.42;20.27;;;;;;;;;;5017579;28;92581;-79
2022/05/05 09:34:41;;;;;;;31.90;22.75;;;;;;;;;;5011799;28;93473;-80
2022/05/05 09:37:20;;;;;;;27.70;20.10;;;;;;;;;;5009715;28;93342;-80
2022/05/05 09:39:52;;;;;;;28.83;21.13;;;;;;;;;;5014944;28;94245;-80
2022/05/05 09:42:34;;;;;;;35.70;22.40;;;;;;;;;;5008276;28;95638;-80
2022/05/05 09:45:11;;;;;;;28.57;22.43;;;;;;;;;;5018333;28;93579;-80
2022/05/05 09:47:45;;;;;;;29.40;21.98;;;;;;;;;;5012197;28;94265;-80
2022/05/05 09:50:19;;;;;;;28.30;20.17;;;;;;;;;;5028299;27;92503;-80
2022/05/05 09:58:37;;;;;;;22.70;18.73;;;;;;;;;;5032969;27;92747;-79
2022/05/05 10:01:06;;;;;;;25.05;20.52;;;;;;;;;;5019437;28;93085;-78
2022/05/05 10:06:28;;;;;;;30.00;19.98;;;;;;;;;;5012171;28;93855;-79
2022/05/05 10:08:55;;;;;;;24.42;18.27;;;;;;;;;;5016932;28;96449;-75
2022/05/05 10:11:22;;;;;;;23.45;18.38;;;;;;;;;;5008647;27;93754;-79
2022/05/05 10:13:49;;;;;;;23.17;17.58;;;;;;;;;;5012672;27;94197;-79
2022/05/05 10:16:17;;;;;;;26.95;19.13;;;;;;;;;;5012102;28;94506;-78
2022/05/05 10:18:44;;;;;;;25.95;20.15;;;;;;;;;;5011551;27;94400;-79
2022/05/05 10:21:19;;;;;;;21.48;18.95;;;;;;;;;;5005571;27;93930;-79
2022/05/05 10:23:56;;;;;;;21.67;18.90;;;;;;;;;;5019111;28;96141;-79
2022/05/05 10:26:23;;;;;;;28.92;20.45;;;;;;;;;;5010034;28;92190;-79
2022/05/05 10:28:50;;;;;;;34.60;21.65;;;;;;;;;;5013972;28;93282;-79
2022/05/05 10:31:31;;;;;;;31.40;21.02;;;;;;;;;;5009828;28;94175;-78
2022/05/05 10:33:59;;;;;;;28.35;21.13;;;;;;;;;;5013923;28;97334;-78
2022/05/05 10:36:26;;;;;;;22.80;20.35;;;;;;;;;;5012500;27;93284;-79
2022/05/05 10:38:52;;;;;;;24.58;17.77;;;;;;;;;;5015242;27;92493;-79
2022/05/05 10:41:31;;;;;;;27.77;21.13;;;;;;;;;;5024106;27;95487;-78
2022/05/05 10:44:16;;;;;;;22.95;18.33;;;;;;;;;;5031994;27;94538;-79
2022/05/05 10:47:04;;;;;;;25.40;21.08;;;;;;;;;;5025967;28;92967;-78
2022/05/05 10:49:33;;;;;;;22.73;20.33;;;;;;;;;;5019584;28;93692;-79
2022/05/05 10:52:09;;;;;;;27.63;21.55;;;;;;;;;;5015946;27;93583;-79
2022/05/05 10:54:42;;;;;;;27.33;20.67;;;;;;;;;;5020987;27;93023;-79
2022/05/05 10:57:26;;;;;;;26.65;21.27;;;;;;;;;;5052666;27;94179;-79
2022/05/05 11:00:15;;;;;;;29.23;23.65;;;;;;;;;;5011380;28;94895;-80
2022/05/05 11:02:56;;;;;;;29.00;21.90;;;;;;;;;;5015546;28;97197;-79
2022/05/05 11:05:29;;;;;;;25.67;22.38;;;;;;;;;;5011741;28;93960;-78
2022/05/05 11:08:08;;;;;;;26.90;21.92;;;;;;;;;;5026643;27;93050;-79
2022/05/05 11:11:39;;;;;;;26.60;21.65;;;;;;;;;;5019407;27;93986;-78
2022/05/05 11:13:37;;;;;;;32.13;21.17;;;;;;;;;;5025185;27;94476;-79
2022/05/05 11:22:08;;;;;;;20.67;16.50;;;;;;;;;;5026382;27;93946;-79
2022/05/05 11:24:36;;;;;;;19.30;16.25;;;;;;;;;;5016595;28;93348;-77
2022/05/05 11:27:03;;;;;;;17.88;15.25;;;;;;;;;;5013292;28;96928;-78
2022/05/05 11:29:30;;;;;;;18.85;16.38;;;;;;;;;;5015702;28;92502;-81
2022/05/05 11:31:57;;;;;;;16.55;14.52;;;;;;;;;;5010896;28;93579;-81
2022/05/05 11:34:32;;;;;;;19.33;15.77;;;;;;;;;;5016445;27;95079;-78
2022/05/05 11:37:00;;;;;;;18.10;14.88;;;;;;;;;;5012856;28;92572;-79
2022/05/05 11:39:27;;;;;;;17.48;15.18;;;;;;;;;;5019506;27;94091;-78
2022/05/05 11:42:00;;;;;;;21.05;14.68;;;;;;;;;;5007824;27;95518;-79
2022/05/05 11:44:27;;;;;;;18.45;15.30;;;;;;;;;;5008597;28;92942;-78
2022/05/05 11:46:54;;;;;;;19.85;15.70;;;;;;;;;;5017227;28;93566;-77
2022/05/05 11:49:21;;;;;;;23.10;16.38;;;;;;;;;;5023726;27;92543;-77
2022/05/05 11:51:48;;;;;;;21.60;16.00;;;;;;;;;;5020219;28;95020;-78
2022/05/05 11:54:15;;;;;;;23.50;16.95;;;;;;;;;;5020912;27;94215;-77
2022/05/05 11:56:46;;;;;;;20.90;16.85;;;;;;;;;;5032376;27;92474;-77
2022/05/05 12:02:26;;;;;;;18.73;15.68;;;;;;;;;;5018463;27;94590;-77
2022/05/05 12:04:55;;;;;;;17.40;15.35;;;;;;;;;;5015672;27;94253;-77
2022/05/05 12:07:23;;;;;;;16.88;15.13;;;;;;;;;;5013463;27;95146;-77
2022/05/05 12:09:51;;;;;;;20.80;14.93;;;;;;;;;;5016663;28;91874;-77
2022/05/05 12:12:19;;;;;;;18.08;16.17;;;;;;;;;;5021975;27;93624;-78
2022/05/05 12:14:49;;;;;;;20.92;16.83;;;;;;;;;;5023306;27;95059;-78
2022/05/05 12:17:20;;;;;;;20.50;17.05;;;;;;;;;;5013713;27;94918;-78
2022/05/05 12:19:53;;;;;;;24.70;17.65;;;;;;;;;;5012011;28;95284;-77
2022/05/05 12:22:21;;;;;;;19.92;16.55;;;;;;;;;;5014385;27;93988;-77
2022/05/05 12:24:47;;;;;;;23.80;16.85;;;;;;;;;;5022422;27;94035;-78
2022/05/05 12:27:14;;;;;;;22.38;18.05;;;;;;;;;;5023770;27;94623;-78
2022/05/05 12:29:44;;;;;;;22.27;18.38;;;;;;;;;;5010002;28;95939;-78
2022/05/05 12:32:12;;;;;;;20.85;17.35;;;;;;;;;;5010750;27;94132;-78
2022/05/05 12:34:39;;;;;;;21.63;17.20;;;;;;;;;;5011576;27;93416;-73
2022/05/05 12:37:11;;;;;;;22.27;17.30;;;;;;;;;;5009796;27;92973;-75
2022/05/05 12:40:01;;;;;;;25.63;17.58;;;;;;;;;;5010678;27;94023;-76
2022/05/05 12:42:40;;;;;;;28.10;19.38;;;;;;;;;;5011116;27;96688;-75
2022/05/05 12:45:29;;;;;;;24.45;19.02;;;;;;;;;;5027201;27;92989;-75
2022/05/05 12:47:58;;;;;;;24.63;18.38;;;;;;;;;;5023648;27;93225;-75
2022/05/05 12:50:33;;;;;;;26.67;19.38;;;;;;;;;;5025912;27;92514;-74
2022/05/05 13:01:26;;;;;;;21.42;18.77;;;;;;;;;;5033164;27;93070;-76
2022/05/05 13:03:54;;;;;;;20.25;17.58;;;;;;;;;;5026624;28;93426;-78
2022/05/05 13:06:21;;;;;;;30.02;20.38;;;;;;;;;;5038374;27;92784;-78
2022/05/05 13:08:52;;;;;;;26.55;17.52;;;;;;;;;;5023773;27;95208;-78
2022/05/05 13:11:19;;;;;;;30.60;18.92;;;;;;;;;;5018868;27;94423;-80
2022/05/05 13:13:46;;;;;;;23.73;18.33;;;;;;;;;;5022676;28;94038;-76
2022/05/05 13:16:13;;;;;;;26.00;18.70;;;;;;;;;;5017373;27;93842;-76
2022/05/05 13:18:40;;;;;;;25.48;19.00;;;;;;;;;;5012985;28;92437;-75
2022/05/05 13:21:06;;;;;;;23.00;17.10;;;;;;;;;;5018555;27;94474;-75
2022/05/05 13:23:33;;;;;;;15.68;13.68;;;;;;;;;;5026737;27;94362;-75
2022/05/05 13:25:59;;;;;;;15.38;13.70;;;;;;;;;;5033755;28;91862;-74
2022/05/05 13:28:25;;;;;;;17.77;14.32;;;;;;;;;;5017594;27;92518;-77
2022/05/05 13:30:52;;;;;;;19.17;16.20;;;;;;;;;;5015630;28;93555;-77
2022/05/05 13:33:18;;;;;;;28.02;17.08;;;;;;;;;;5013160;27;95010;-77
2022/05/05 13:35:44;;;;;;;19.52;16.08;;;;;;;;;;5014171;28;94507;-77
2022/05/05 13:38:11;;;;;;;29.40;15.68;;;;;;;;;;5032402;28;92493;-77
2022/05/05 13:40:37;;;;;;;16.20;14.13;;;;;;;;;;5023296;27;94325;-77
2022/05/05 13:43:03;;;;;;;17.98;14.70;;;;;;;;;;5013044;27;93468;-76
2022/05/05 13:45:31;;;;;;;21.75;14.48;;;;;;;;;;5013055;28;92950;-77
2022/05/05 13:47:58;;;;;;;15.70;13.43;;;;;;;;;;5024788;28;93838;-77
2022/05/05 13:50:25;;;;;;;16.05;14.35;;;;;;;;;;5012276;28;93474;-77
2022/05/05 13:52:52;;;;;;;22.20;16.75;;;;;;;;;;5019346;27;92519;-77
2022/05/05 13:55:18;;;;;;;22.85;16.42;;;;;;;;;;5014746;27;92583;-76
2022/05/05 13:57:44;;;;;;;24.30;17.80;;;;;;;;;;5029025;27;95022;-76
2022/05/05 14:00:13;;;;;;;20.02;17.40;;;;;;;;;;5020037;27;96741;-76
2022/05/05 14:02:41;;;;;;;29.38;18.52;;;;;;;;;;5015342;27;94195;-79
2022/05/05 14:05:08;;;;;;;34.22;18.58;;;;;;;;;;5025693;27;93373;-79
2022/05/05 14:13:05;;;;;;;24.45;16.67;;;;;;;;;;5008744;28;92577;-75
2022/05/05 14:15:31;;;;;;;17.20;15.45;;;;;;;;;;5017891;27;94149;-77
2022/05/05 14:17:58;;;;;;;17.83;14.85;;;;;;;;;;5009844;27;94372;-76
2022/05/05 14:20:26;;;;;;;18.45;14.75;;;;;;;;;;5016818;28;94547;-75
2022/05/05 14:22:53;;;;;;;19.10;15.80;;;;;;;;;;5007793;28;95688;-75
2022/05/05 14:25:20;;;;;;;20.88;17.15;;;;;;;;;;5022393;27;93043;-75
2022/05/05 14:27:46;;;;;;;20.65;17.30;;;;;;;;;;5014437;27;94313;-75
2022/05/05 14:30:13;;;;;;;25.85;19.17;;;;;;;;;;5014384;27;94218;-75
2022/05/05 14:32:39;;;;;;;25.65;19.35;;;;;;;;;;5006571;28;94557;-75
2022/05/05 14:35:06;;;;;;;30.92;18.65;;;;;;;;;;5014264;27;94050;-75
2022/05/05 14:37:32;;;;;;;23.33;20.73;;;;;;;;;;5010249;28;94338;-76
2022/05/05 14:39:59;;;;;;;24.25;19.27;;;;;;;;;;5007664;28;93495;-76
2022/05/05 14:42:26;;;;;;;25.02;20.77;;;;;;;;;;5010742;27;94240;-78
2022/05/05 14:44:52;;;;;;;24.65;19.77;;;;;;;;;;5012560;28;94140;-75
2022/05/05 14:47:19;;;;;;;21.98;19.60;;;;;;;;;;5007543;27;96724;-75
2022/05/05 14:49:48;;;;;;;23.40;18.27;;;;;;;;;;5012522;28;94215;-76
2022/05/05 14:52:15;;;;;;;23.65;18.58;;;;;;;;;;5015827;27;92562;-75
2022/05/05 14:54:42;;;;;;;23.88;17.63;;;;;;;;;;5022376;27;93703;-77
2022/05/05 14:57:11;;;;;;;21.20;17.67;;;;;;;;;;5031701;27;94690;-76
2022/05/05 14:59:37;;;;;;;27.73;17.33;;;;;;;;;;5013969;28;92412;-77
2022/05/05 15:02:04;;;;;;;19.98;17.90;;;;;;;;;;5015489;27;93457;-77
2022/05/05 15:04:30;;;;;;;20.95;17.77;;;;;;;;;;5019778;27;92376;-76
2022/05/05 15:06:57;;;;;;;22.63;16.88;;;;;;;;;;5026679;27;93126;-76
2022/05/05 15:09:25;;;;;;;20.40;16.08;;;;;;;;;;5012911;28;93153;-76
2022/05/05 15:11:52;;;;;;;21.05;15.48;;;;;;;;;;5022782;27;95048;-77